createdAt,value
2018-02-14T04:01:35.343Z,82.41
2018-02-14T04:02:34.748Z,82.41
2018-02-14T04:05:18.044Z,82.12
2018-02-14T04:06:17.683Z,82.50
2018-02-14T04:09:01.587Z,82.12
2018-02-14T04:10:01.515Z,82.60
2018-02-14T04:12:45.932Z,82.69
2018-02-14T04:13:46.248Z,83.12
2018-02-14T04:16:30.591Z,83.69
2018-02-14T04:17:30.547Z,83.83
2018-02-14T04:20:13.975Z,84.45
2018-02-14T04:21:13.898Z,84.35
2018-02-14T04:23:57.912Z,84.35
2018-02-14T04:24:58.249Z,84.35
2018-02-14T04:27:42.656Z,83.97
2018-02-14T04:28:42.602Z,83.88
2018-02-14T04:31:25.578Z,83.59
2018-02-14T04:32:25.563Z,83.50
2018-02-14T04:35:08.925Z,83.78
2018-02-14T04:36:09.235Z,83.97
2018-02-14T04:38:52.636Z,84.92
2018-02-14T04:39:52.230Z,85.11
2018-02-14T04:42:36.659Z,85.11
2018-02-14T04:43:36.929Z,85.01
2018-02-14T04:46:21.342Z,85.49
2018-02-14T04:47:21.267Z,85.20
2018-02-14T04:50:05.726Z,85.86
2018-02-14T04:51:05.586Z,85.86
2018-02-14T04:53:49.927Z,86.24
2018-02-14T04:54:49.936Z,86.71
2018-02-14T04:57:34.418Z,86.33
2018-02-14T04:58:34.294Z,86.05
2018-02-14T05:01:17.624Z,86.24
2018-02-14T05:02:17.646Z,86.33
2018-02-14T05:05:00.689Z,86.62
2018-02-14T05:06:00.975Z,86.99
2018-02-14T05:08:45.409Z,86.80
2018-02-14T05:09:44.971Z,86.43
2018-02-14T05:12:28.852Z,87.28
2018-02-14T05:13:28.807Z,87.09
2018-02-14T05:16:12.256Z,87.09
2018-02-14T05:17:12.139Z,86.62
2018-02-14T05:19:56.585Z,87.18
2018-02-14T05:20:55.549Z,87.09
2018-02-14T05:23:39.441Z,86.15
2018-02-14T05:24:38.851Z,86.33
2018-02-14T05:27:22.760Z,86.33
2018-02-14T05:28:21.829Z,86.99
2018-02-14T05:31:05.201Z,86.90
2018-02-14T05:32:06.013Z,87.18
2018-02-14T05:34:49.967Z,87.75
2018-02-14T05:35:50.055Z,87.66
2018-02-14T05:38:33.125Z,87.75
2018-02-14T05:39:32.812Z,88.32
2018-02-14T05:42:16.639Z,88.37
2018-02-14T05:43:16.539Z,88.09
2018-02-14T05:45:59.610Z,87.80
2018-02-14T05:47:00.425Z,88.23
2018-02-14T05:49:44.476Z,88.37
2018-02-14T05:50:44.467Z,88.46
2018-02-14T05:53:28.785Z,88.51
2018-02-14T05:54:28.809Z,88.18
2018-02-14T05:57:13.708Z,88.18
2018-02-14T05:58:13.165Z,89.07
2018-02-14T06:00:57.740Z,89.54
2018-02-14T06:01:58.954Z,89.26
2018-02-14T06:04:40.850Z,89.07
2018-02-14T06:05:40.769Z,88.70
2018-02-14T06:08:25.530Z,88.23
2018-02-14T06:09:25.484Z,87.75
2018-02-14T06:10:25.538Z,87.66
2018-02-14T06:11:25.429Z,88.89
2018-02-14T06:12:25.111Z,88.89
2018-02-14T06:13:25.045Z,89.07
2018-02-14T06:14:25.046Z,88.42
2018-02-14T06:15:25.041Z,88.51
2018-02-14T06:16:25.354Z,88.42
2018-02-14T06:17:25.327Z,88.42
2018-02-14T06:18:25.355Z,88.13
2018-02-14T06:19:25.397Z,88.51
2018-02-14T06:20:25.343Z,88.04
2018-02-14T06:21:25.352Z,88.60
2018-02-14T06:22:25.356Z,88.98
2018-02-14T06:23:25.405Z,88.51
2018-02-14T06:24:25.364Z,88.51
2018-02-14T06:25:25.267Z,88.32
2018-02-14T06:26:24.862Z,88.32
2018-02-14T06:27:24.860Z,88.42
2018-02-14T06:28:24.869Z,88.51
2018-02-14T06:29:24.846Z,87.75
2018-02-14T06:30:24.837Z,87.85
2018-02-14T06:31:24.800Z,87.94
2018-02-14T06:32:24.798Z,88.42
2018-02-14T06:33:24.782Z,88.89
2018-02-14T06:34:24.785Z,88.51
2018-02-14T06:35:24.768Z,88.60
2018-02-14T06:36:24.749Z,88.42
2018-02-14T06:37:24.726Z,88.89
2018-02-14T06:38:24.718Z,88.42
2018-02-14T06:39:24.697Z,88.23
2018-02-14T06:40:24.694Z,87.94
2018-02-14T06:41:24.678Z,87.47
2018-02-14T06:42:24.662Z,88.32
2018-02-14T06:43:24.646Z,88.23
2018-02-14T06:44:24.637Z,88.79
2018-02-14T06:45:24.622Z,88.04
2018-02-14T06:46:24.608Z,88.51
2018-02-14T06:47:24.596Z,88.04
2018-02-14T06:48:24.585Z,87.37
2018-02-14T06:49:24.565Z,86.62
2018-02-14T06:50:24.566Z,87.47
2018-02-14T06:51:24.542Z,88.32
2018-02-14T06:52:24.528Z,88.51
2018-02-14T06:53:24.520Z,89.07
2018-02-14T06:54:24.495Z,88.51
2018-02-14T06:55:24.499Z,88.23
2018-02-14T06:56:24.480Z,88.23
2018-02-14T06:57:24.453Z,88.23
2018-02-14T06:58:24.448Z,88.23
2018-02-14T06:59:24.441Z,87.85
2018-02-14T07:00:24.421Z,87.47
2018-02-14T07:01:24.416Z,87.85
2018-02-14T07:02:24.393Z,87.75
2018-02-14T07:03:24.389Z,87.66
2018-02-14T07:04:24.373Z,88.04
2018-02-14T07:05:24.364Z,87.94
2018-02-14T07:06:24.368Z,87.75
2018-02-14T07:07:24.344Z,88.04
2018-02-14T07:08:24.325Z,87.85
2018-02-14T07:09:24.294Z,87.66
2018-02-14T07:10:24.306Z,87.09
2018-02-14T07:11:24.287Z,87.47
2018-02-14T07:12:24.262Z,86.99
2018-02-14T07:13:24.262Z,86.62
2018-02-14T07:14:24.238Z,86.71
2018-02-14T07:15:24.220Z,87.47
2018-02-14T07:16:24.212Z,86.99
2018-02-14T07:17:24.244Z,86.90
2018-02-14T07:18:24.186Z,86.05
2018-02-14T07:19:24.184Z,85.77
2018-02-14T07:20:24.158Z,85.86
2018-02-14T07:21:24.156Z,85.30
2018-02-14T07:22:24.128Z,85.20
2018-02-14T07:23:24.130Z,85.30
2018-02-14T07:24:24.104Z,85.01
2018-02-14T07:25:24.093Z,85.20
2018-02-14T07:26:24.082Z,85.58
2018-02-14T07:27:24.066Z,85.20
2018-02-14T07:28:24.056Z,84.64
2018-02-14T07:29:24.048Z,84.39
2018-02-14T07:30:24.059Z,84.77
2018-02-14T07:31:24.020Z,84.30
2018-02-14T07:32:23.999Z,83.92
2018-02-14T07:33:23.986Z,83.17
2018-02-14T07:34:23.980Z,83.54
2018-02-14T07:35:23.983Z,82.60
2018-02-14T07:36:23.947Z,83.07
2018-02-14T07:37:23.937Z,82.79
2018-02-14T07:38:23.918Z,82.60
2018-02-14T07:39:23.911Z,82.03
2018-02-14T07:40:23.900Z,81.37
2018-02-14T07:41:23.893Z,80.71
2018-02-14T07:42:23.879Z,80.33
2018-02-14T07:43:23.853Z,79.99
2018-02-14T07:44:23.845Z,79.99
2018-02-14T07:45:23.838Z,79.52
2018-02-14T07:46:23.822Z,78.95
2018-02-14T07:47:23.815Z,79.14
2018-02-14T07:48:23.805Z,79.14
2018-02-14T07:49:23.779Z,79.33
2018-02-14T07:50:23.768Z,78.29
2018-02-14T07:51:23.758Z,78.58
2018-02-14T07:52:23.754Z,79.05
2018-02-14T07:53:23.732Z,78.48
2018-02-14T07:54:23.714Z,78.10
2018-02-14T07:55:23.713Z,77.91
2018-02-14T07:56:23.706Z,78.29
2018-02-14T07:57:23.685Z,77.15
2018-02-14T07:58:23.672Z,77.15
2018-02-14T07:59:23.661Z,77.06
2018-02-14T08:00:23.646Z,77.06
2018-02-14T08:01:23.638Z,76.68
2018-02-14T08:02:23.621Z,76.72
2018-02-14T08:03:23.607Z,76.59
2018-02-14T08:04:23.596Z,76.34
2018-02-14T08:05:23.580Z,76.44
2018-02-14T08:06:23.566Z,76.91
2018-02-14T08:07:23.555Z,76.06
2018-02-14T08:08:23.547Z,75.68
2018-02-14T08:09:23.521Z,75.02
2018-02-14T08:10:23.514Z,75.59
2018-02-14T08:11:23.521Z,75.31
2018-02-14T08:12:23.496Z,74.93
2018-02-14T08:13:23.486Z,75.96
2018-02-14T08:14:23.475Z,75.21
2018-02-14T08:15:23.463Z,74.93
2018-02-14T08:16:23.448Z,74.83
2018-02-14T08:16:35.445Z,75.12
2018-02-14T08:18:23.421Z,75.12
2018-02-14T08:19:23.411Z,74.74
2018-02-14T08:20:23.426Z,74.36
2018-02-14T08:21:23.382Z,74.36
2018-02-14T08:22:23.363Z,74.55
2018-02-14T08:23:23.358Z,74.74
2018-02-14T08:24:23.352Z,74.74
2018-02-14T08:25:23.335Z,74.45
2018-02-14T08:26:23.321Z,75.12
2018-02-14T08:27:23.314Z,74.45
2018-02-14T08:28:23.301Z,74.07
2018-02-14T08:29:23.291Z,73.60
2018-02-14T08:30:23.273Z,73.32
2018-02-14T08:31:23.265Z,73.50
2018-02-14T08:32:23.250Z,73.22
2018-02-14T08:33:23.245Z,72.85
2018-02-14T08:34:23.229Z,73.32
2018-02-14T08:35:23.217Z,73.03
2018-02-14T08:36:23.203Z,73.03
2018-02-14T08:37:23.191Z,73.32
2018-02-14T08:38:23.182Z,73.13
2018-02-14T08:39:23.166Z,72.85
2018-02-14T08:40:23.162Z,73.50
2018-02-14T08:41:23.147Z,73.03
2018-02-14T08:42:23.135Z,73.03
2018-02-14T08:43:23.118Z,73.13
2018-02-14T08:44:23.110Z,73.03
2018-02-14T08:45:23.095Z,72.94
2018-02-14T08:46:23.086Z,72.94
2018-02-14T08:47:23.073Z,72.94
2018-02-14T08:48:23.057Z,73.22
2018-02-14T08:49:23.050Z,72.60
2018-02-14T08:50:23.030Z,72.31
2018-02-14T08:51:23.026Z,72.78
2018-02-14T08:52:23.011Z,72.09
2018-02-14T08:53:23.003Z,71.90
2018-02-14T08:54:22.992Z,71.36
2018-02-14T08:55:22.982Z,70.89
2018-02-14T08:56:22.960Z,71.08
2018-02-14T08:57:22.954Z,71.74
2018-02-14T08:58:22.939Z,71.74
2018-02-14T08:59:22.928Z,71.17
2018-02-14T09:00:22.922Z,71.27
2018-02-14T09:01:22.900Z,71.27
2018-02-14T09:02:22.896Z,71.74
2018-02-14T09:03:22.881Z,71.74
2018-02-14T09:04:22.870Z,71.36
2018-02-14T09:05:22.861Z,70.61
2018-02-14T09:06:22.850Z,70.89
2018-02-14T09:07:22.837Z,70.79
2018-02-14T09:08:22.829Z,70.79
2018-02-14T09:09:22.810Z,71.17
2018-02-14T09:10:22.801Z,71.36
2018-02-14T09:11:22.783Z,70.79
2018-02-14T09:12:22.772Z,71.27
2018-02-14T09:13:22.758Z,71.27
2018-02-14T09:14:22.746Z,71.55
2018-02-14T09:15:22.740Z,70.70
2018-02-14T09:16:22.729Z,70.79
2018-02-14T09:17:22.722Z,70.42
2018-02-14T09:18:22.701Z,70.51
2018-02-14T09:19:22.698Z,70.42
2018-02-14T09:20:22.681Z,70.70
2018-02-14T09:21:22.675Z,70.32
2018-02-14T09:22:22.668Z,70.42
2018-02-14T09:23:22.651Z,70.70
2018-02-14T09:24:22.635Z,70.42
2018-02-14T09:25:22.622Z,69.95
2018-02-14T09:26:22.624Z,69.76
2018-02-14T09:27:22.600Z,69.76
2018-02-14T09:28:22.590Z,68.81
2018-02-14T09:29:22.578Z,68.71
2018-02-14T09:30:22.569Z,68.81
2018-02-14T09:31:22.596Z,68.81
2018-02-14T09:32:22.549Z,68.71
2018-02-14T09:33:22.538Z,68.71
2018-02-14T09:34:22.528Z,68.43
2018-02-14T09:35:22.514Z,68.90
2018-02-14T09:36:22.501Z,68.90
2018-02-14T09:37:22.484Z,68.90
2018-02-14T09:38:22.475Z,68.81
2018-02-14T09:39:22.461Z,68.84
2018-02-14T09:40:22.457Z,68.90
2018-02-14T09:41:22.442Z,68.94
2018-02-14T09:42:22.428Z,68.94
2018-02-14T09:43:22.423Z,68.75
2018-02-14T09:44:22.405Z,68.94
2018-02-14T09:45:22.401Z,69.13
2018-02-14T09:46:22.391Z,68.75
2018-02-14T09:47:22.378Z,68.65
2018-02-14T09:48:22.360Z,68.56
2018-02-14T09:49:22.350Z,68.18
2018-02-14T09:50:22.348Z,67.90
2018-02-14T09:51:22.335Z,67.99
2018-02-14T09:52:22.313Z,68.08
2018-02-14T09:53:22.306Z,67.61
2018-02-14T09:54:22.314Z,67.24
2018-02-14T09:55:22.281Z,67.24
2018-02-14T09:56:22.278Z,67.05
2018-02-14T09:57:22.262Z,67.24
2018-02-14T09:58:22.253Z,67.14
2018-02-14T09:59:22.243Z,67.24
2018-02-14T10:00:22.230Z,67.14
2018-02-14T10:01:22.221Z,67.05
2018-02-14T10:02:22.207Z,67.71
2018-02-14T10:03:22.197Z,67.33
2018-02-14T10:04:22.184Z,67.05
2018-02-14T10:05:22.169Z,67.14
2018-02-14T10:06:22.164Z,67.05
2018-02-14T10:07:22.150Z,66.67
2018-02-14T10:08:22.134Z,67.14
2018-02-14T10:09:22.125Z,66.86
2018-02-14T10:10:22.114Z,66.95
2018-02-14T10:11:22.105Z,66.67
2018-02-14T10:12:22.097Z,66.57
2018-02-14T10:13:22.084Z,66.67
2018-02-14T10:14:22.074Z,66.76
2018-02-14T10:15:22.063Z,67.05
2018-02-14T10:16:22.050Z,66.38
2018-02-14T10:17:22.046Z,66.00
2018-02-14T10:18:22.025Z,65.91
2018-02-14T10:19:22.016Z,66.47
2018-02-14T10:20:22.004Z,66.00
2018-02-14T10:21:21.986Z,65.91
2018-02-14T10:22:21.981Z,66.00
2018-02-14T10:23:21.970Z,66.19
2018-02-14T10:24:21.986Z,66.28
2018-02-14T10:25:21.956Z,66.60
2018-02-14T10:26:21.936Z,66.60
2018-02-14T10:27:21.928Z,66.60
2018-02-14T10:28:21.913Z,66.13
2018-02-14T10:29:21.908Z,66.51
2018-02-14T10:30:21.893Z,66.51
2018-02-14T10:31:21.889Z,66.22
2018-02-14T10:32:21.877Z,65.84
2018-02-14T10:33:21.864Z,65.66
2018-02-14T10:34:21.854Z,65.75
2018-02-14T10:35:21.846Z,65.66
2018-02-14T10:36:21.830Z,65.84
2018-02-14T10:37:21.815Z,65.56
2018-02-14T10:38:21.809Z,65.66
2018-02-14T10:39:21.794Z,65.47
2018-02-14T10:40:21.818Z,65.37
2018-02-14T10:41:21.779Z,65.75
2018-02-14T10:42:21.770Z,65.19
2018-02-14T10:43:21.755Z,65.37
2018-02-14T10:44:21.740Z,65.37
2018-02-14T10:45:21.751Z,64.71
2018-02-14T10:46:21.712Z,64.90
2018-02-14T10:47:21.727Z,64.90
2018-02-14T10:48:21.698Z,64.90
2018-02-14T10:49:21.719Z,64.71
2018-02-14T10:50:21.696Z,65.09
2018-02-14T10:51:21.696Z,64.42
2018-02-14T10:52:21.679Z,64.61
2018-02-14T10:53:21.642Z,64.71
2018-02-14T10:54:21.632Z,65.09
2018-02-14T10:55:21.640Z,64.90
2018-02-14T10:56:21.627Z,64.81
2018-02-14T10:57:21.626Z,64.90
2018-02-14T10:58:21.588Z,64.52
2018-02-14T10:59:21.585Z,64.23
2018-02-14T11:00:21.565Z,64.42
2018-02-14T11:01:21.563Z,64.33
2018-02-14T11:02:21.557Z,64.23
2018-02-14T11:03:21.556Z,63.67
2018-02-14T11:04:21.532Z,64.33
2018-02-14T11:05:21.511Z,64.23
2018-02-14T11:06:21.520Z,64.52
2018-02-14T11:07:21.518Z,63.76
2018-02-14T11:08:21.502Z,64.14
2018-02-14T11:09:21.486Z,63.95
2018-02-14T11:10:21.473Z,63.76
2018-02-14T11:11:21.461Z,63.39
2018-02-14T11:12:21.439Z,63.10
2018-02-14T11:13:21.435Z,63.29
2018-02-14T11:14:21.427Z,63.67
2018-02-14T11:15:21.419Z,63.89
2018-02-14T11:16:21.391Z,63.95
2018-02-14T11:17:21.387Z,63.13
2018-02-14T11:18:21.394Z,63.70
2018-02-14T11:19:21.375Z,63.89
2018-02-14T11:20:21.352Z,64.46
2018-02-14T11:21:21.363Z,63.98
2018-02-14T11:22:21.362Z,63.51
2018-02-14T11:23:21.320Z,63.89
2018-02-14T11:24:21.306Z,63.60
2018-02-14T11:25:21.314Z,63.51
2018-02-14T11:26:21.286Z,63.89
2018-02-14T11:27:21.292Z,63.89
2018-02-14T11:28:21.331Z,63.32
2018-02-14T11:29:21.256Z,63.32
2018-02-14T11:30:21.257Z,63.23
2018-02-14T11:31:21.234Z,62.85
2018-02-14T11:32:21.233Z,62.94
2018-02-14T11:33:21.218Z,62.85
2018-02-14T11:34:21.221Z,62.56
2018-02-14T11:35:21.191Z,62.08
2018-02-14T11:36:21.189Z,62.28
2018-02-14T11:37:21.173Z,63.04
2018-02-14T11:38:21.156Z,62.85
2018-02-14T11:38:33.165Z,62.94
2018-02-14T11:40:21.161Z,63.04
2018-02-14T11:41:21.134Z,62.37
2018-02-14T11:42:21.123Z,62.75
2018-02-14T11:43:21.111Z,62.28
2018-02-14T11:44:21.103Z,62.28
2018-02-14T11:45:21.091Z,62.37
2018-02-14T11:46:21.080Z,62.08
2018-02-14T11:47:21.118Z,62.75
2018-02-14T11:48:21.072Z,62.08
2018-02-14T11:49:21.055Z,61.71
2018-02-14T11:50:21.049Z,62.18
2018-02-14T11:51:21.056Z,61.99
2018-02-14T11:52:21.021Z,62.18
2018-02-14T11:53:21.014Z,62.18
2018-02-14T11:54:20.995Z,62.18
2018-02-14T11:55:20.984Z,61.90
2018-02-14T11:56:20.970Z,61.71
2018-02-14T11:57:20.976Z,61.99
2018-02-14T11:58:21.000Z,62.56
2018-02-14T11:59:20.954Z,62.66
2018-02-14T12:00:20.930Z,61.90
2018-02-14T12:01:20.929Z,61.99
2018-02-14T12:02:20.909Z,62.18
2018-02-14T12:03:20.904Z,61.99
2018-02-14T12:04:20.916Z,61.71
2018-02-14T12:05:20.888Z,61.80
2018-02-14T12:06:20.891Z,61.74
2018-02-14T12:07:20.861Z,61.71
2018-02-14T12:08:20.870Z,60.67
2018-02-14T12:09:20.845Z,61.17
2018-02-14T12:10:20.871Z,60.41
2018-02-14T12:11:20.823Z,60.41
2018-02-14T12:12:20.808Z,60.31
2018-02-14T12:13:20.802Z,61.17
2018-02-14T12:14:20.785Z,60.41
2018-02-14T12:15:20.795Z,60.50
2018-02-14T12:16:20.788Z,60.50
2018-02-14T12:17:20.772Z,60.31
2018-02-14T12:18:20.766Z,59.66
2018-02-14T12:19:20.744Z,58.99
2018-02-14T12:20:20.736Z,58.80
2018-02-14T12:21:20.725Z,58.70
2018-02-14T12:22:20.713Z,59.08
2018-02-14T12:23:20.734Z,59.18
2018-02-14T12:24:20.698Z,59.18
2018-02-14T12:25:20.686Z,59.08
2018-02-14T12:26:20.686Z,59.18
2018-02-14T12:27:20.655Z,59.18
2018-02-14T12:28:20.643Z,58.80
2018-02-14T12:29:20.645Z,58.42
2018-02-14T12:30:20.630Z,58.89
2018-02-14T12:31:20.623Z,57.66
2018-02-14T12:32:20.612Z,57.76
2018-02-14T12:33:20.600Z,57.76
2018-02-14T12:34:20.599Z,57.57
2018-02-14T12:35:20.579Z,57.28
2018-02-14T12:36:20.576Z,57.57
2018-02-14T12:37:20.564Z,56.81
2018-02-14T12:38:20.559Z,57.09
2018-02-14T12:39:20.545Z,56.99
2018-02-14T12:40:20.579Z,56.62
2018-02-14T12:41:20.527Z,56.71
2018-02-14T12:42:20.516Z,55.96
2018-02-14T12:43:20.499Z,55.00
2018-02-14T12:44:20.499Z,54.91
2018-02-14T12:45:20.474Z,55.00
2018-02-14T12:46:20.479Z,54.82
2018-02-14T12:47:20.462Z,55.48
2018-02-14T12:48:20.459Z,55.86
2018-02-14T12:49:20.446Z,56.24
2018-02-14T12:50:20.433Z,56.05
2018-02-14T12:51:20.423Z,55.96
2018-02-14T12:52:20.427Z,55.96
2018-02-14T12:53:20.405Z,56.05
2018-02-14T12:54:20.387Z,55.79
2018-02-14T12:55:20.397Z,55.10
2018-02-14T12:56:20.372Z,55.48
2018-02-14T12:57:20.365Z,55.89
2018-02-14T12:58:20.354Z,55.57
2018-02-14T12:59:20.345Z,55.00
2018-02-14T13:00:20.409Z,54.72
2018-02-14T13:01:20.334Z,54.82
2018-02-14T13:02:20.338Z,55.38
2018-02-14T13:03:20.318Z,55.57
2018-02-14T13:04:20.298Z,55.10
2018-02-14T13:05:20.288Z,55.67
2018-02-14T13:06:20.282Z,55.57
2018-02-14T13:07:20.260Z,54.91
2018-02-14T13:08:20.269Z,54.75
2018-02-14T13:09:20.247Z,54.63
2018-02-14T13:10:20.231Z,54.53
2018-02-14T13:11:20.230Z,54.63
2018-02-14T13:12:20.208Z,54.34
2018-02-14T13:13:20.210Z,55.00
2018-02-14T13:14:20.221Z,54.94
2018-02-14T13:15:20.189Z,54.56
2018-02-14T13:16:20.181Z,54.66
2018-02-14T13:17:20.169Z,54.75
2018-02-14T13:18:20.153Z,53.99
2018-02-14T13:19:20.144Z,53.96
2018-02-14T13:20:20.139Z,53.70
2018-02-14T13:21:20.143Z,54.08
2018-02-14T13:22:20.123Z,53.68
2018-02-14T13:23:20.112Z,53.96
2018-02-14T13:24:20.107Z,53.89
2018-02-14T13:25:20.098Z,54.27
2018-02-14T13:26:20.080Z,54.27
2018-02-14T13:27:20.064Z,53.80
2018-02-14T13:28:20.073Z,53.80
2018-02-14T13:29:20.048Z,53.61
2018-02-14T13:30:20.038Z,53.52
2018-02-14T13:31:20.037Z,53.20
2018-02-14T13:32:20.026Z,53.42
2018-02-14T13:33:20.016Z,53.33
2018-02-14T13:34:20.002Z,53.23
2018-02-14T13:35:20.004Z,53.33
2018-02-14T13:36:19.988Z,53.70
2018-02-14T13:37:19.977Z,52.85
2018-02-14T13:38:19.967Z,52.37
2018-02-14T13:39:19.955Z,51.72
2018-02-14T13:40:19.946Z,51.90
2018-02-14T13:41:19.936Z,51.81
2018-02-14T13:42:19.918Z,51.90
2018-02-14T13:43:19.921Z,52.09
2018-02-14T13:44:19.902Z,51.62
2018-02-14T13:45:19.904Z,51.52
2018-02-14T13:46:19.896Z,52.19
2018-02-14T13:47:19.877Z,51.72
2018-02-14T13:48:19.897Z,51.62
2018-02-14T13:49:19.864Z,52.00
2018-02-14T13:50:19.871Z,51.90
2018-02-14T13:51:19.844Z,51.52
2018-02-14T13:52:19.847Z,51.05
2018-02-14T13:53:19.812Z,50.86
2018-02-14T13:54:19.805Z,51.43
2018-02-14T13:55:19.798Z,51.33
2018-02-14T13:56:19.790Z,50.86
2018-02-14T13:57:19.786Z,50.48
2018-02-14T13:58:19.774Z,50.86
2018-02-14T13:59:19.760Z,50.76
2018-02-14T14:00:19.754Z,50.76
2018-02-14T14:01:19.757Z,50.57
2018-02-14T14:02:19.735Z,50.76
2018-02-14T14:03:19.731Z,50.67
2018-02-14T14:04:19.707Z,50.95
2018-02-14T14:05:19.715Z,50.95
2018-02-14T14:06:19.701Z,50.76
2018-02-14T14:07:19.685Z,50.76
2018-02-14T14:08:19.673Z,50.86
2018-02-14T14:09:19.670Z,50.86
2018-02-14T14:10:19.662Z,51.33
2018-02-14T14:11:19.657Z,51.33
2018-02-14T14:12:19.638Z,50.57
2018-02-14T14:13:19.633Z,49.63
2018-02-14T14:14:19.620Z,50.38
2018-02-14T14:15:19.622Z,50.10
2018-02-14T14:16:19.598Z,49.63
2018-02-14T14:17:19.591Z,50.01
2018-02-14T14:18:19.573Z,49.72
2018-02-14T14:19:19.585Z,50.38
2018-02-14T14:20:19.573Z,50.29
2018-02-14T14:21:19.545Z,50.01
2018-02-14T14:22:19.538Z,50.01
2018-02-14T14:23:19.526Z,50.48
2018-02-14T14:24:19.521Z,50.48
2018-02-14T14:25:19.535Z,49.82
2018-02-14T14:26:19.506Z,49.63
2018-02-14T14:27:19.516Z,49.63
2018-02-14T14:28:19.483Z,49.82
2018-02-14T14:29:19.483Z,49.63
2018-02-14T14:30:19.464Z,49.63
2018-02-14T14:31:19.450Z,50.10
2018-02-14T14:32:19.464Z,49.34
2018-02-14T14:33:19.441Z,49.63
2018-02-14T14:34:19.426Z,49.63
2018-02-14T14:35:19.415Z,49.91
2018-02-14T14:36:19.414Z,49.91
2018-02-14T14:37:19.400Z,49.82
2018-02-14T14:38:19.423Z,49.82
2018-02-14T14:39:19.379Z,49.72
2018-02-14T14:40:19.372Z,49.05
2018-02-14T14:41:19.432Z,49.05
2018-02-14T14:42:19.342Z,48.58
2018-02-14T14:43:19.390Z,48.96
2018-02-14T14:44:19.343Z,49.05
2018-02-14T14:45:19.334Z,49.24
2018-02-14T14:46:19.315Z,49.24
2018-02-14T14:47:19.304Z,49.15
2018-02-14T14:48:19.307Z,48.68
2018-02-14T14:49:19.288Z,48.68
2018-02-14T14:50:19.274Z,49.05
2018-02-14T14:51:19.279Z,49.05
2018-02-14T14:52:19.271Z,49.82
2018-02-14T14:53:19.251Z,49.72
2018-02-14T14:54:19.235Z,49.82
2018-02-14T14:55:19.225Z,49.91
2018-02-14T14:56:19.229Z,49.91
2018-02-14T14:57:19.229Z,50.20
2018-02-14T14:58:19.199Z,49.43
2018-02-14T14:59:19.197Z,49.63
2018-02-14T15:00:19.223Z,49.34
2018-02-14T15:01:19.169Z,49.91
2018-02-14T15:02:19.165Z,50.20
2018-02-14T15:03:19.150Z,49.24
2018-02-14T15:04:19.162Z,49.15
2018-02-14T15:05:19.125Z,48.68
2018-02-14T15:06:19.139Z,48.20
2018-02-14T15:07:19.115Z,48.49
2018-02-14T15:08:19.106Z,48.30
2018-02-14T15:09:19.107Z,48.58
2018-02-14T15:10:19.105Z,48.68
2018-02-14T15:11:19.078Z,48.39
2018-02-14T15:12:19.072Z,48.30
2018-02-14T15:13:19.057Z,48.68
2018-02-14T15:14:19.051Z,48.20
2018-02-14T15:15:19.032Z,48.96
2018-02-14T15:16:19.039Z,48.96
2018-02-14T15:17:19.015Z,48.20
2018-02-14T15:18:19.007Z,48.49
2018-02-14T15:19:18.997Z,48.30
2018-02-14T15:20:18.983Z,48.30
2018-02-14T15:21:18.978Z,49.15
2018-02-14T15:22:18.974Z,49.05
2018-02-14T15:23:18.971Z,48.58
2018-02-14T15:24:18.946Z,48.11
2018-02-14T15:25:18.947Z,48.30
2018-02-14T15:26:18.932Z,48.39
2018-02-14T15:27:18.914Z,48.39
2018-02-14T15:28:18.913Z,48.68
2018-02-14T15:29:18.896Z,48.96
2018-02-14T15:30:18.914Z,48.96
2018-02-14T15:31:18.885Z,48.20
2018-02-14T15:32:18.871Z,48.20
2018-02-14T15:33:18.872Z,48.46
2018-02-14T15:34:18.862Z,48.68
2018-02-14T15:35:18.848Z,49.24
2018-02-14T15:36:18.831Z,49.24
2018-02-14T15:37:18.829Z,48.75
2018-02-14T15:38:18.817Z,48.94
2018-02-14T15:39:18.819Z,48.94
2018-02-14T15:40:18.795Z,48.94
2018-02-14T15:41:18.794Z,49.41
2018-02-14T15:42:18.817Z,49.79
2018-02-14T15:43:18.768Z,49.22
2018-02-14T15:44:18.757Z,49.03
2018-02-14T15:45:18.740Z,49.79
2018-02-14T15:46:18.742Z,49.60
2018-02-14T15:47:18.737Z,49.98
2018-02-14T15:48:18.745Z,49.98
2018-02-14T15:49:18.713Z,49.60
2018-02-14T15:50:18.688Z,50.07
2018-02-14T15:51:18.682Z,50.07
2018-02-14T15:52:18.678Z,50.17
2018-02-14T15:53:18.667Z,50.26
2018-02-14T15:54:18.656Z,50.64
2018-02-14T15:55:18.647Z,50.26
2018-02-14T15:56:18.638Z,51.03
2018-02-14T15:57:18.633Z,50.83
2018-02-14T15:58:18.615Z,50.36
2018-02-14T15:59:18.615Z,51.03
2018-02-14T16:00:18.600Z,51.31
2018-02-14T16:01:18.584Z,51.31
2018-02-14T16:02:18.577Z,51.31
2018-02-14T16:03:18.560Z,51.97
2018-02-14T16:04:18.562Z,52.06
2018-02-14T16:05:18.547Z,51.68
2018-02-14T16:06:18.543Z,52.16
2018-02-14T16:07:18.527Z,51.68
2018-02-14T16:08:18.518Z,51.97
2018-02-14T16:09:18.519Z,52.45
2018-02-14T16:10:18.500Z,52.06
2018-02-14T16:11:18.495Z,52.06
2018-02-14T16:12:18.478Z,52.26
2018-02-14T16:13:18.458Z,52.45
2018-02-14T16:14:18.458Z,52.92
2018-02-14T16:15:18.451Z,53.02
2018-02-14T16:16:18.436Z,52.73
2018-02-14T16:17:18.441Z,52.61
2018-02-14T16:18:18.407Z,53.46
2018-02-14T16:19:18.440Z,53.20
2018-02-14T16:20:18.402Z,53.37
2018-02-14T16:21:18.390Z,53.37
2018-02-14T16:22:18.414Z,53.84
2018-02-14T16:23:18.364Z,53.56
2018-02-14T16:24:18.379Z,53.46
2018-02-14T16:25:18.394Z,54.13
2018-02-14T16:26:18.333Z,54.79
2018-02-14T16:27:18.319Z,54.88
2018-02-14T16:28:18.310Z,54.79
2018-02-14T16:29:18.295Z,54.98
2018-02-14T16:30:18.300Z,55.17
2018-02-14T16:31:18.276Z,55.07
2018-02-14T16:32:18.285Z,54.69
2018-02-14T16:33:18.257Z,54.88
2018-02-14T16:34:18.258Z,55.17
2018-02-14T16:35:18.249Z,54.79
2018-02-14T16:36:18.236Z,54.98
2018-02-14T16:37:18.227Z,54.69
2018-02-14T16:38:18.218Z,54.79
2018-02-14T16:39:18.197Z,55.26
2018-02-14T16:40:18.231Z,55.74
2018-02-14T16:41:18.193Z,55.26
2018-02-14T16:42:18.173Z,55.93
2018-02-14T16:43:18.173Z,56.12
2018-02-14T16:44:18.150Z,56.21
2018-02-14T16:45:20.006Z,55.83
2018-02-14T16:46:18.128Z,55.83
2018-02-14T16:47:18.117Z,55.74
2018-02-14T16:48:18.116Z,55.64
2018-02-14T16:49:18.113Z,55.74
2018-02-14T16:50:18.100Z,55.74
2018-02-14T16:51:18.072Z,55.83
2018-02-14T16:52:18.072Z,56.21
2018-02-14T16:53:18.061Z,55.64
2018-02-14T16:54:18.047Z,55.83
2018-02-14T16:55:18.032Z,55.55
2018-02-14T16:56:18.018Z,56.09
2018-02-14T16:57:18.072Z,56.30
2018-02-14T16:58:18.006Z,56.18
2018-02-14T16:59:17.990Z,56.18
2018-02-14T17:00:17.993Z,56.66
2018-02-14T17:01:17.973Z,56.46
2018-02-14T17:02:17.964Z,56.18
2018-02-14T17:03:17.964Z,56.46
2018-02-14T17:04:17.938Z,57.13
2018-02-14T17:05:17.926Z,57.04
2018-02-14T17:06:17.917Z,57.23
2018-02-14T17:07:17.920Z,57.42
2018-02-14T17:08:17.896Z,57.42
2018-02-14T17:09:17.895Z,57.79
2018-02-14T17:10:17.876Z,57.42
2018-02-14T17:11:17.878Z,57.42
2018-02-14T17:12:17.851Z,57.51
2018-02-14T17:13:17.848Z,57.23
2018-02-14T17:14:17.842Z,57.79
2018-02-14T17:15:17.817Z,57.98
2018-02-14T17:16:17.812Z,57.51
2018-02-14T17:17:17.802Z,58.45
2018-02-14T17:18:17.786Z,58.17
2018-02-14T17:19:17.782Z,58.45
2018-02-14T17:20:17.762Z,58.55
2018-02-14T17:21:17.767Z,58.45
2018-02-14T17:22:17.744Z,58.93
2018-02-14T17:23:17.750Z,58.84
2018-02-14T17:24:17.725Z,58.74
2018-02-14T17:25:17.722Z,58.93
2018-02-14T17:26:17.707Z,59.03
2018-02-14T17:27:17.687Z,59.03
2018-02-14T17:28:17.686Z,59.12
2018-02-14T17:29:17.678Z,59.41
2018-02-14T17:30:17.663Z,59.50
2018-02-14T17:31:17.666Z,59.12
2018-02-14T17:32:17.657Z,59.12
2018-02-14T17:33:17.630Z,59.31
2018-02-14T17:34:17.625Z,58.65
2018-02-14T17:35:17.613Z,58.65
2018-02-14T17:36:17.594Z,59.03
2018-02-14T17:37:17.585Z,58.45
2018-02-14T17:38:17.591Z,58.74
2018-02-14T17:39:17.558Z,58.84
2018-02-14T17:40:17.565Z,58.93
2018-02-14T17:41:17.542Z,59.41
2018-02-14T17:42:17.533Z,59.59
2018-02-14T17:43:17.524Z,59.59
2018-02-14T17:44:17.506Z,59.41
2018-02-14T17:45:17.502Z,59.69
2018-02-14T17:46:17.491Z,60.25
2018-02-14T17:47:17.469Z,60.16
2018-02-14T17:48:17.455Z,60.16
2018-02-14T17:49:17.510Z,60.16
2018-02-14T17:50:18.157Z,60.35
2018-02-14T17:51:17.432Z,60.25
2018-02-14T17:52:17.426Z,60.06